Time,TemperatureF,DewpointF,PressureIn,WindDirection,WindDirectionDegrees,WindSpeedMPH,WindSpeedGustMPH,Humidity,HourlyPrecipIn,Conditions,Clouds,dailyrainin,SoftwareType,DateUTC
2013-03-17 00:03:00,26.0,21.0,29.94,WSW,256,6.0,6.0,82,0.00,,,0.00,weatherlink.com 1.10,2013-03-17 04:03:00,
2013-03-17 00:18:00,25.9,21.0,29.94,West,280,0.0,5.0,81,0.00,,,0.00,weatherlink.com 1.10,2013-03-17 04:18:00,
2013-03-17 00:33:00,26.2,20.0,29.94,SW,222,2.0,4.0,77,0.00,,,0.00,weatherlink.com 1.10,2013-03-17 04:33:00,
2013-03-17 00:48:00,26.5,20.0,29.95,SW,226,2.0,7.0,75,0.00,,,0.00,weatherlink.com 1.10,2013-03-17 04:48:00,
2013-03-17 01:03:00,26.5,20.0,29.94,SW,229,1.0,6.0,75,0.00,,,0.00,weatherlink.com 1.10,2013-03-17 05:03:00,
2013-03-17 01:18:00,26.1,19.0,29.94,South,181,1.0,3.0,75,0.00,,,0.00,weatherlink.com 1.10,2013-03-17 05:18:00,
2013-03-17 01:33:00,25.6,19.0,29.95,WSW,240,2.0,3.0,75,0.00,,,0.00,weatherlink.com 1.10,2013-03-17 05:33:00,
2013-03-17 01:48:00,25.5,18.0,29.95,West,281,2.0,7.0,74,0.00,,,0.00,weatherlink.com 1.10,2013-03-17 05:48:00,
2013-03-17 02:03:00,25.2,18.0,29.95,West,278,3.0,4.0,74,0.00,,,0.00,weatherlink.com 1.10,2013-03-17 06:03:00,
2013-03-17 02:18:00,25.1,16.0,29.96,West,274,2.0,5.0,69,0.00,,,0.00,weatherlink.com 1.10,2013-03-17 06:18:00,
2013-03-17 02:33:00,24.7,15.0,29.97,WNW,301,2.0,5.0,68,0.00,,,0.00,weatherlink.com 1.10,2013-03-17 06:33:00,
2013-03-17 02:49:00,24.4,15.0,29.97,SW,236,1.0,8.0,67,0.00,,,0.00,weatherlink.com 1.10,2013-03-17 06:49:00,
2013-03-17 03:04:00,23.6,15.0,29.98,NW,311,2.0,4.0,69,0.00,,,0.00,weatherlink.com 1.10,2013-03-17 07:04:00,
2013-03-17 03:19:00,23.5,15.0,30.00,SW,228,2.0,6.0,69,0.00,,,0.00,weatherlink.com 1.10,2013-03-17 07:19:00,
2013-03-17 03:34:00,23.4,14.0,29.99,West,264,1.0,7.0,67,0.00,,,0.00,weatherlink.com 1.10,2013-03-17 07:34:00,
2013-03-17 03:49:00,22.8,14.0,29.99,WNW,297,2.0,3.0,70,0.00,,,0.00,weatherlink.com 1.10,2013-03-17 07:49:00,
2013-03-17 04:04:00,22.5,13.0,29.99,NW,310,2.0,4.0,68,0.00,,,0.00,weatherlink.com 1.10,2013-03-17 08:04:00,
2013-03-17 04:19:00,22.3,13.0,29.98,WSW,242,0.0,6.0,67,0.00,,,0.00,weatherlink.com 1.10,2013-03-17 08:19:00,
2013-03-17 04:34:00,21.7,13.0,29.98,SW,219,0.0,5.0,68,0.00,,,0.00,weatherlink.com 1.10,2013-03-17 08:34:00,
2013-03-17 04:49:00,21.3,13.0,30.00,SW,219,3.0,3.0,70,0.00,,,0.00,weatherlink.com 1.10,2013-03-17 08:49:00,
2013-03-17 05:04:00,20.8,13.0,29.99,NNW,340,3.0,4.0,71,0.00,,,0.00,weatherlink.com 1.10,2013-03-17 09:04:00,
2013-03-17 05:19:00,21.8,10.0,30.01,NNW,328,7.0,15.0,61,0.00,,,0.00,weatherlink.com 1.10,2013-03-17 09:19:00,
2013-03-17 05:34:00,21.5,10.0,30.02,ESE,120,2.0,8.0,62,0.00,,,0.00,weatherlink.com 1.10,2013-03-17 09:34:00,
2013-03-17 05:49:00,21.0,10.0,30.03,WNW,290,5.0,7.0,63,0.00,,,0.00,weatherlink.com 1.10,2013-03-17 09:49:00,
2013-03-17 06:04:00,20.7,10.0,30.04,SW,229,1.0,5.0,64,0.00,,,0.00,weatherlink.com 1.10,2013-03-17 10:04:00,
2013-03-17 06:19:00,20.0,11.0,30.05,NNE,23,0.0,2.0,67,0.00,,,0.00,weatherlink.com 1.10,2013-03-17 10:19:00,
2013-03-17 06:34:00,19.2,11.0,30.06,WSW,245,0.0,0.0,70,0.00,,,0.00,weatherlink.com 1.10,2013-03-17 10:34:00,
2013-03-17 06:49:00,18.6,11.0,30.07,West,259,1.0,4.0,72,0.00,,,0.00,weatherlink.com 1.10,2013-03-17 10:49:00,
2013-03-17 07:04:00,19.4,11.0,30.07,SW,216,5.0,-999.0,71,-99.99,,,0.00,weatherlink.com 1.10,2013-03-17 11:04:00,
2013-03-17 07:19:00,19.8,12.0,30.07,WNW,282,2.0,5.0,70,0.00,,,0.00,weatherlink.com 1.10,2013-03-17 11:19:00,
2013-03-17 07:34:00,20.5,13.0,30.07,WSW,239,2.0,6.0,72,0.00,,,0.00,weatherlink.com 1.10,2013-03-17 11:34:00,
2013-03-17 07:49:00,21.1,13.0,30.08,WNW,291,3.0,4.0,72,0.00,,,0.00,weatherlink.com 1.10,2013-03-17 11:49:00,
2013-03-17 08:04:00,21.5,14.0,30.09,WSW,249,1.0,3.0,73,0.00,,,0.00,weatherlink.com 1.10,2013-03-17 12:04:00,
2013-03-17 08:19:00,22.0,15.0,30.09,West,275,4.0,6.0,73,0.00,,,0.00,weatherlink.com 1.10,2013-03-17 12:19:00,
2013-03-17 08:35:00,22.5,15.0,30.11,West,269,4.0,7.0,73,0.00,,,0.00,weatherlink.com 1.10,2013-03-17 12:35:00,
2013-03-17 08:50:00,23.0,16.0,30.12,WSW,239,2.0,5.0,73,0.00,,,0.00,weatherlink.com 1.10,2013-03-17 12:50:00,
2013-03-17 09:05:00,23.8,15.0,30.12,WNW,287,0.0,10.0,68,0.00,,,0.00,weatherlink.com 1.10,2013-03-17 13:05:00,
2013-03-17 09:20:00,24.9,16.0,30.13,WNW,301,5.0,6.0,68,0.00,,,0.00,weatherlink.com 1.10,2013-03-17 13:20:00,
2013-03-17 09:35:00,24.9,13.0,30.13,NNW,336,5.0,15.0,62,0.00,,,0.00,weatherlink.com 1.10,2013-03-17 13:35:00,
2013-03-17 09:50:00,25.2,13.0,30.13,East,82,2.0,12.0,61,0.00,,,0.00,weatherlink.com 1.10,2013-03-17 13:50:00,
2013-03-17 10:20:00,26.5,13.0,30.13,WNW,300,10.0,14.0,56,0.00,,,0.00,weatherlink.com 1.10,2013-03-17 14:20:00,
2013-03-17 10:35:00,26.4,12.0,30.14,NNW,335,6.0,28.0,55,0.00,,,0.00,weatherlink.com 1.10,2013-03-17 14:35:00,
2013-03-17 10:50:00,26.9,12.0,30.15,West,276,5.0,12.0,54,0.00,,,0.00,weatherlink.com 1.10,2013-03-17 14:50:00,
2013-03-17 11:05:00,27.4,11.0,30.15,NW,304,4.0,15.0,51,0.00,,,0.00,weatherlink.com 1.10,2013-03-17 15:05:00,
2013-03-17 11:20:00,27.8,9.0,30.16,NNW,346,8.0,16.0,46,0.00,,,0.00,weatherlink.com 1.10,2013-03-17 15:20:00,
2013-03-17 11:35:00,28.6,12.0,30.15,NNW,333,6.0,13.0,49,0.00,,,0.00,weatherlink.com 1.10,2013-03-17 15:35:00,
2013-03-17 11:50:00,28.8,9.0,30.15,NNE,33,2.0,12.0,44,0.00,,,0.00,weatherlink.com 1.10,2013-03-17 15:50:00,
2013-03-17 12:05:00,29.6,11.0,30.14,East,100,3.0,13.0,45,0.00,,,0.00,weatherlink.com 1.10,2013-03-17 16:05:00,
2013-03-17 12:20:00,29.4,9.0,30.15,WNW,288,0.0,15.0,43,0.00,,,0.00,weatherlink.com 1.10,2013-03-17 16:20:00,
2013-03-17 12:35:00,30.1,10.0,30.15,NW,321,2.0,21.0,43,0.00,,,0.00,weatherlink.com 1.10,2013-03-17 16:35:00,
2013-03-17 12:50:00,30.8,10.0,30.15,NNW,333,2.0,9.0,41,0.00,,,0.00,weatherlink.com 1.10,2013-03-17 16:50:00,
2013-03-17 13:05:00,31.2,9.0,30.16,WNW,300,11.0,18.0,40,0.00,,,0.00,weatherlink.com 1.10,2013-03-17 17:05:00,
2013-03-17 13:20:00,30.9,10.0,30.16,North,353,14.0,14.0,41,0.00,,,0.00,weatherlink.com 1.10,2013-03-17 17:20:00,
2013-03-17 13:35:00,30.8,10.0,30.16,WNW,302,10.0,15.0,41,0.00,,,0.00,weatherlink.com 1.10,2013-03-17 17:35:00,
2013-03-17 13:50:00,31.7,10.0,30.16,NW,308,5.0,8.0,40,0.00,,,0.00,weatherlink.com 1.10,2013-03-17 17:50:00,
2013-03-17 14:05:00,32.0,10.0,30.16,NE,53,6.0,11.0,40,0.00,,,0.00,weatherlink.com 1.10,2013-03-17 18:05:00,
2013-03-17 14:20:00,32.5,9.0,30.16,WNW,298,6.0,12.0,38,0.00,,,0.00,weatherlink.com 1.10,2013-03-17 18:20:00,
2013-03-17 14:35:00,31.7,7.0,30.16,WSW,252,6.0,17.0,36,0.00,,,0.00,weatherlink.com 1.10,2013-03-17 18:35:00,
2013-03-17 14:50:00,31.8,9.0,30.16,North,3,8.0,15.0,38,0.00,,,0.00,weatherlink.com 1.10,2013-03-17 18:50:00,
2013-03-17 15:05:00,31.8,9.0,30.16,NW,311,3.0,16.0,39,0.00,,,0.00,weatherlink.com 1.10,2013-03-17 19:05:00,
2013-03-17 15:20:00,31.8,9.0,30.17,NW,309,7.0,21.0,38,0.00,,,0.00,weatherlink.com 1.10,2013-03-17 19:20:00,
2013-03-17 15:35:00,31.7,10.0,30.17,NW,323,5.0,17.0,40,0.00,,,0.00,weatherlink.com 1.10,2013-03-17 19:35:00,
2013-03-17 15:50:00,32.0,9.0,30.16,NNE,22,5.0,13.0,38,0.00,,,0.00,weatherlink.com 1.10,2013-03-17 19:50:00,
2013-03-17 16:05:00,32.1,8.0,30.17,NNW,340,4.0,14.0,37,0.00,,,0.00,weatherlink.com 1.10,2013-03-17 20:05:00,
2013-03-17 16:20:00,32.6,9.0,30.17,NNE,18,5.0,10.0,37,0.00,,,0.00,weatherlink.com 1.10,2013-03-17 20:20:00,
2013-03-17 16:35:00,31.9,8.0,30.18,WNW,302,9.0,19.0,37,0.00,,,0.00,weatherlink.com 1.10,2013-03-17 20:35:00,
2013-03-17 16:50:00,32.3,9.0,30.18,NNE,12,6.0,11.0,37,0.00,,,0.00,weatherlink.com 1.10,2013-03-17 20:50:00,
2013-03-17 17:05:00,32.3,9.0,30.18,ENE,72,2.0,7.0,37,0.00,,,0.00,weatherlink.com 1.10,2013-03-17 21:05:00,
2013-03-17 17:20:00,31.8,8.0,30.19,NW,314,6.0,11.0,37,0.00,,,0.00,weatherlink.com 1.10,2013-03-17 21:20:00,
2013-03-17 17:35:00,31.4,8.0,30.20,NNE,18,3.0,14.0,38,0.00,,,0.00,weatherlink.com 1.10,2013-03-17 21:35:00,
2013-03-17 17:50:00,31.1,7.0,30.20,WNW,288,2.0,16.0,36,0.00,,,0.00,weatherlink.com 1.10,2013-03-17 21:50:00,
2013-03-17 18:06:00,30.8,7.0,30.22,NNE,32,12.0,16.0,37,0.00,,,0.00,weatherlink.com 1.10,2013-03-17 22:06:00,
2013-03-17 18:21:00,30.5,7.0,30.22,North,355,5.0,14.0,37,0.00,,,0.00,weatherlink.com 1.10,2013-03-17 22:21:00,
2013-03-17 18:36:00,29.8,8.0,30.22,NW,326,4.0,12.0,40,0.00,,,0.00,weatherlink.com 1.10,2013-03-17 22:36:00,
2013-03-17 18:51:00,29.3,8.0,30.23,NW,321,5.0,17.0,41,0.00,,,0.00,weatherlink.com 1.10,2013-03-17 22:51:00,
2013-03-17 19:06:00,29.0,8.0,30.24,WNW,298,6.0,15.0,42,0.00,,,0.00,weatherlink.com 1.10,2013-03-17 23:06:00,
2013-03-17 19:22:00,28.6,8.0,30.26,West,280,3.0,12.0,42,0.00,,,0.00,weatherlink.com 1.10,2013-03-17 23:22:00,
2013-03-17 19:36:00,28.5,8.0,30.27,North,8,4.0,15.0,42,0.00,,,0.00,weatherlink.com 1.10,2013-03-17 23:36:00,
2013-03-17 20:06:00,27.8,8.0,30.27,ENE,62,5.0,10.0,43,0.00,,,0.00,weatherlink.com 1.10,2013-03-18 00:06:00,
2013-03-17 20:21:00,27.4,9.0,30.27,NW,319,2.0,12.0,45,0.00,,,0.00,weatherlink.com 1.10,2013-03-18 00:21:00,
2013-03-17 20:51:00,27.0,9.0,30.29,WNW,294,5.0,7.0,46,0.00,,,0.00,weatherlink.com 1.10,2013-03-18 00:51:00,
2013-03-17 21:06:00,26.6,9.0,30.30,NNW,330,7.0,7.0,47,0.00,,,0.00,weatherlink.com 1.10,2013-03-18 01:06:00,
2013-03-17 21:21:00,26.1,9.0,30.31,WSW,249,0.0,3.0,49,0.00,,,0.00,weatherlink.com 1.10,2013-03-18 01:21:00,
2013-03-17 21:36:00,25.2,9.0,30.32,NW,323,3.0,3.0,51,0.00,,,0.00,weatherlink.com 1.10,2013-03-18 01:36:00,
2013-03-17 21:51:00,25.4,9.0,30.32,WNW,295,3.0,9.0,50,0.00,,,0.00,weatherlink.com 1.10,2013-03-18 01:51:00,
2013-03-17 22:06:00,25.4,9.0,30.33,NNW,340,3.0,7.0,49,0.00,,,0.00,weatherlink.com 1.10,2013-03-18 02:06:00,
2013-03-17 22:21:00,24.8,8.0,30.34,NNW,343,2.0,4.0,50,0.00,,,0.00,weatherlink.com 1.10,2013-03-18 02:21:00,
2013-03-17 22:36:00,24.9,9.0,30.34,NW,321,3.0,9.0,51,0.00,,,0.00,weatherlink.com 1.10,2013-03-18 02:36:00,
2013-03-17 22:51:00,24.6,10.0,30.35,NW,305,0.0,5.0,55,0.00,,,0.00,weatherlink.com 1.10,2013-03-18 02:51:00,
2013-03-17 23:06:00,24.3,10.0,30.35,NNW,334,0.0,6.0,55,0.00,,,0.00,weatherlink.com 1.10,2013-03-18 03:06:00,
2013-03-17 23:21:00,23.8,10.0,30.36,NW,309,3.0,4.0,55,0.00,,,0.00,weatherlink.com 1.10,2013-03-18 03:21:00,
2013-03-17 23:36:00,23.1,10.0,30.36,WNW,290,0.0,3.0,57,0.00,,,0.00,weatherlink.com 1.10,2013-03-18 03:36:00,
2013-03-17 23:51:00,22.9,10.0,30.36,NW,316,2.0,4.0,59,0.00,,,0.00,weatherlink.com 1.10,2013-03-18 03:51:00,